Time;durP1;ratioP1;P1;durP2;ratioP2;P2;SDS_P1;SDS_P2;PMS_P1;PMS_P2;Temp;Humidity;BMP_temperature;BMP_pressure;BME280_temperature;BME280_humidity;BME280_pressure;Samples;Min_cycle;Max_cycle;Signal;HPM_P1;HPM_P2
2022/07/29 00:00:52;;;;;;;1.20;1.10;;;20.90;29.00;;;;;;5119718;28;20544;-73
2022/07/29 00:03:19;;;;;;;1.30;1.20;;;21.00;31.00;;;;;;5119804;28;20492;-73
2022/07/29 00:05:47;;;;;;;3.00;1.37;;;21.00;24.70;;;;;;5120280;28;20488;-73
2022/07/29 00:08:15;;;;;;;1.47;1.27;;;21.10;31.90;;;;;;5119799;28;20522;-72
2022/07/29 00:10:42;;;;;;;1.30;1.10;;;20.90;40.70;;;;;;5119615;28;20450;-73
2022/07/29 00:13:09;;;;;;;1.70;1.40;;;20.80;54.50;;;;;;5119362;28;20479;-73
2022/07/29 00:15:36;;;;;;;2.20;1.20;;;20.70;86.20;;;;;;5119894;28;20494;-73
2022/07/29 00:18:04;;;;;;;3.77;1.50;;;20.60;74.10;;;;;;5119525;28;20560;-73
2022/07/29 00:20:31;;;;;;;1.37;1.10;;;20.60;88.70;;;;;;5119811;28;20440;-72
2022/07/29 00:22:59;;;;;;;1.60;1.20;;;20.60;92.70;;;;;;5119650;28;20480;-73
2022/07/29 00:25:26;;;;;;;1.97;1.30;;;20.60;93.70;;;;;;5119450;28;20947;-73
2022/07/29 00:27:53;;;;;;;1.60;1.30;;;20.50;95.60;;;;;;5118761;28;20900;-73
2022/07/29 00:30:20;;;;;;;6.50;4.97;;;20.50;96.50;;;;;;5119142;28;20852;-73
2022/07/29 00:32:47;;;;;;;1.60;1.50;;;20.40;99.90;;;;;;5119156;28;20476;-73
2022/07/29 00:38:00;;;;;;;1.37;1.20;;;20.50;99.90;;;;;;5119221;28;20941;-73
2022/07/29 00:40:27;;;;;;;1.60;1.30;;;20.50;99.10;;;;;;5118975;28;20468;-73
2022/07/29 00:42:54;;;;;;;1.20;1.10;;;20.60;99.90;;;;;;5118574;28;20480;-73
2022/07/29 00:45:21;;;;;;;1.30;1.20;;;20.70;89.50;;;;;;5117063;28;20484;-73
2022/07/29 00:47:49;;;;;;;2.33;1.37;;;20.70;84.00;;;;;;5117659;28;20456;-73
2022/07/29 00:50:16;;;;;;;1.60;1.30;;;20.80;75.70;;;;;;5117382;28;20869;-73
2022/07/29 00:52:43;;;;;;;1.20;1.10;;;20.70;73.00;;;;;;5116786;28;20463;-73
2022/07/29 00:55:13;;;;;;;1.30;1.10;;;20.60;73.30;;;;;;5117923;28;20510;-73
2022/07/29 00:57:41;;;;;;;2.03;1.27;;;20.50;92.50;;;;;;5118572;28;20547;-73
2022/07/29 01:00:11;;;;;;;1.83;1.40;;;20.50;99.90;;;;;;5119101;28;20480;-73
2022/07/29 01:02:39;;;;;;;1.40;1.10;;;20.60;92.20;;;;;;5118919;28;20484;-74
2022/07/29 01:05:07;;;;;;;1.30;1.13;;;20.70;80.70;;;;;;5119428;28;20447;-73
2022/07/29 01:07:35;;;;;;;1.30;1.20;;;20.80;83.50;;;;;;5119109;28;20492;-73
2022/07/29 01:10:03;;;;;;;1.93;1.00;;;20.70;78.20;;;;;;5118793;28;20577;-73
2022/07/29 01:12:33;;;;;;;1.10;1.00;;;20.70;57.50;;;;;;5118499;28;20872;-72
2022/07/29 01:15:02;;;;;;;1.10;1.00;;;20.60;78.40;;;;;;5118896;28;20432;-73
2022/07/29 01:17:34;;;;;;;1.83;1.17;;;20.50;78.90;;;;;;5117797;28;20484;-73
2022/07/29 01:20:11;;;;;;;1.27;1.10;;;20.50;77.50;;;;;;5118990;28;20480;-73
2022/07/29 01:23:09;;;;;;;1.83;1.10;;;20.50;93.20;;;;;;5118518;28;20496;-72
2022/07/29 01:26:04;;;;;;;1.53;1.30;;;20.50;84.20;;;;;;5118574;28;20488;-72
2022/07/29 01:28:48;;;;;;;1.40;1.10;;;20.50;86.50;;;;;;5116884;28;20496;-73
2022/07/29 01:31:19;;;;;;;1.70;1.00;;;20.50;93.70;;;;;;5118661;28;20440;-73
2022/07/29 01:33:53;;;;;;;1.20;1.00;;;20.50;91.70;;;;;;5117436;28;20544;-73
2022/07/29 01:36:26;;;;;;;1.40;1.20;;;20.40;84.90;;;;;;5117279;28;20474;-74
2022/07/29 01:39:00;;;;;;;1.10;1.00;;;20.50;70.00;;;;;;5118184;28;20952;-72
2022/07/29 01:41:32;;;;;;;1.30;1.10;;;20.40;73.30;;;;;;5117431;28;20746;-72
2022/07/29 01:44:05;;;;;;;1.67;1.00;;;20.40;71.20;;;;;;5118505;28;20533;-73
2022/07/29 01:46:35;;;;;;;1.20;1.00;;;20.30;70.10;;;;;;5117601;28;20531;-72
2022/07/29 01:49:13;;;;;;;1.80;1.10;;;20.20;88.40;;;;;;5116318;28;20531;-73
2022/07/29 01:51:47;;;;;;;1.00;0.90;;;20.20;88.80;;;;;;5116399;28;20726;-72
2022/07/29 01:54:20;;;;;;;1.13;1.00;;;20.20;85.80;;;;;;5116754;28;20452;-73
2022/07/29 01:56:51;;;;;;;1.20;1.00;;;20.30;88.00;;;;;;5115213;28;20445;-73
2022/07/29 01:59:23;;;;;;;1.30;0.90;;;20.20;85.20;;;;;;5115997;28;20539;-73
2022/07/29 02:01:53;;;;;;;1.27;1.00;;;20.20;84.30;;;;;;5116654;28;20729;-73
2022/07/29 02:04:20;;;;;;;1.57;1.20;;;20.20;91.70;;;;;;5118070;28;20492;-73
2022/07/29 02:06:50;;;;;;;1.00;0.90;;;20.20;74.00;;;;;;5117765;28;20476;-73
2022/07/29 02:09:18;;;;;;;1.20;1.00;;;20.30;70.70;;;;;;5117789;28;20519;-72
2022/07/29 02:11:50;;;;;;;1.30;1.00;;;20.30;66.30;;;;;;5117191;28;20449;-73
2022/07/29 02:14:21;;;;;;;0.93;0.80;;;20.30;63.20;;;;;;5117358;28;20453;-73
2022/07/29 02:16:50;;;;;;;1.40;1.30;;;20.30;58.40;;;;;;5117565;28;20484;-73
2022/07/29 02:19:19;;;;;;;1.10;0.90;;;20.20;66.30;;;;;;5117453;28;20780;-72
2022/07/29 02:21:48;;;;;;;1.47;0.77;;;20.10;66.60;;;;;;5117571;28;20887;-73
2022/07/29 02:24:17;;;;;;;1.00;0.90;;;20.10;82.50;;;;;;5117277;28;20488;-74
2022/07/29 02:26:45;;;;;;;1.17;0.97;;;20.20;57.80;;;;;;5116845;28;20437;-73
2022/07/29 02:29:14;;;;;;;1.30;0.90;;;20.20;50.70;;;;;;5117738;28;20876;-73
2022/07/29 02:31:44;;;;;;;1.17;0.90;;;20.20;57.80;;;;;;5117376;28;20452;-72
2022/07/29 02:34:12;;;;;;;2.30;0.90;;;20.20;59.40;;;;;;5117310;28;20539;-72
2022/07/29 02:36:40;;;;;;;1.20;0.90;;;20.10;55.80;;;;;;5117557;28;20448;-72
2022/07/29 02:39:10;;;;;;;1.10;0.80;;;20.00;56.90;;;;;;5117216;28;20503;-72
2022/07/29 02:41:43;;;;;;;1.00;0.83;;;20.10;62.30;;;;;;5117053;28;20499;-72
2022/07/29 02:44:12;;;;;;;1.27;0.90;;;20.00;44.90;;;;;;5116848;28;20492;-72
2022/07/29 02:46:50;;;;;;;1.00;0.80;;;20.00;50.70;;;;;;5116357;28;20441;-73
2022/07/29 02:49:32;;;;;;;1.70;0.80;;;19.90;57.60;;;;;;5116199;28;20463;-73
2022/07/29 02:52:03;;;;;;;1.00;0.87;;;20.00;51.20;;;;;;5115985;28;20529;-72
2022/07/29 02:54:38;;;;;;;1.20;0.90;;;20.00;48.90;;;;;;5116889;28;20457;-72
2022/07/29 02:57:10;;;;;;;1.43;0.80;;;20.00;74.30;;;;;;5116881;28;20490;-72
2022/07/29 02:59:42;;;;;;;1.90;1.13;;;19.90;63.10;;;;;;5117141;28;20532;-73
2022/07/29 03:02:12;;;;;;;1.23;0.90;;;20.00;65.20;;;;;;5117473;28;20476;-73
2022/07/29 03:04:42;;;;;;;1.00;0.90;;;20.20;40.90;;;;;;5117140;28;20507;-73
2022/07/29 03:07:11;;;;;;;0.97;0.87;;;20.20;26.40;;;;;;5116132;28;20455;-73
2022/07/29 03:09:39;;;;;;;1.33;0.90;;;20.20;32.30;;;;;;5116826;28;20512;-72
2022/07/29 03:12:07;;;;;;;1.40;1.00;;;20.10;35.80;;;;;;5116602;28;20444;-73
2022/07/29 03:14:34;;;;;;;1.10;0.80;;;20.00;44.90;;;;;;5116449;28;20501;-73
2022/07/29 03:17:04;;;;;;;1.10;0.90;;;19.90;52.00;;;;;;5116329;28;20953;-73
2022/07/29 03:19:34;;;;;;;1.00;0.80;;;19.90;57.50;;;;;;5116757;28;20445;-72
2022/07/29 03:22:01;;;;;;;0.90;0.80;;;20.00;56.20;;;;;;5116473;28;20530;-72
2022/07/29 03:24:30;;;;;;;1.50;0.90;;;20.10;46.70;;;;;;5116546;28;20488;-72
2022/07/29 03:26:58;;;;;;;1.80;0.97;;;20.10;34.40;;;;;;5116617;28;20499;-72
2022/07/29 03:29:25;;;;;;;1.60;0.97;;;20.10;39.00;;;;;;5115097;28;20891;-71
2022/07/29 03:31:54;;;;;;;1.10;0.90;;;20.10;38.40;;;;;;5114996;28;20449;-74
2022/07/29 03:34:24;;;;;;;1.10;0.90;;;20.10;42.00;;;;;;5116474;28;20449;-73
2022/07/29 03:36:52;;;;;;;0.90;0.80;;;20.00;42.90;;;;;;5116062;28;20444;-73
2022/07/29 03:39:26;;;;;;;1.20;0.93;;;19.90;58.90;;;;;;5115860;28;20470;-73
2022/07/29 03:41:56;;;;;;;1.20;0.90;;;19.80;81.90;;;;;;5116523;28;20484;-71
2022/07/29 03:44:25;;;;;;;1.20;0.80;;;19.70;93.40;;;;;;5116732;28;20533;-74
2022/07/29 03:46:54;;;;;;;1.23;0.90;;;19.60;96.70;;;;;;5115832;28;20488;-73
2022/07/29 03:49:24;;;;;;;1.10;0.90;;;19.60;95.30;;;;;;5116233;28;20522;-73
2022/07/29 03:51:52;;;;;;;1.50;0.90;;;19.60;97.90;;;;;;5116360;28;20527;-73
2022/07/29 03:54:19;;;;;;;0.97;0.80;;;19.60;98.40;;;;;;5115557;28;20492;-73
2022/07/29 03:56:50;;;;;;;1.00;0.83;;;19.60;99.80;;;;;;5116013;28;20938;-73
2022/07/29 03:59:19;;;;;;;1.40;0.80;;;19.70;93.70;;;;;;5116065;28;20496;-73
2022/07/29 04:01:47;;;;;;;1.10;0.90;;;19.70;93.10;;;;;;5116421;28;20868;-73
2022/07/29 04:04:14;;;;;;;1.87;0.73;;;19.60;97.80;;;;;;5116074;28;20496;-74
2022/07/29 04:06:41;;;;;;;1.00;0.90;;;19.60;99.90;;;;;;5116273;28;20888;-73
2022/07/29 04:09:10;;;;;;;1.10;0.80;;;19.70;97.90;;;;;;5115417;28;20468;-73
2022/07/29 04:11:38;;;;;;;3.00;0.90;;;19.70;92.30;;;;;;5115773;28;20492;-73
2022/07/29 04:14:06;;;;;;;1.13;0.90;;;19.80;91.00;;;;;;5115610;28;20480;-74
2022/07/29 04:16:33;;;;;;;0.80;0.80;;;19.80;75.10;;;;;;5115502;28;20459;-73
2022/07/29 04:19:00;;;;;;;1.37;0.97;;;19.80;75.60;;;;;;5116083;28;20492;-73
2022/07/29 04:21:27;;;;;;;1.10;0.83;;;19.70;81.30;;;;;;5115931;28;20496;-73
2022/07/29 04:23:54;;;;;;;0.90;0.80;;;19.70;84.20;;;;;;5115827;28;20452;-73
2022/07/29 04:26:24;;;;;;;1.97;0.87;;;19.70;73.90;;;;;;5115716;28;20480;-73
2022/07/29 04:28:51;;;;;;;1.10;0.90;;;19.80;73.50;;;;;;5118923;28;20480;-74
2022/07/29 04:31:17;;;;;;;1.10;0.80;;;19.80;65.10;;;;;;5118687;28;20527;-73
2022/07/29 04:33:44;;;;;;;0.97;0.80;;;19.90;54.70;;;;;;5119228;28;20484;-74
2022/07/29 04:36:11;;;;;;;1.00;0.80;;;19.90;47.10;;;;;;5116673;28;20453;-73
2022/07/29 04:38:39;;;;;;;1.10;0.80;;;20.00;48.10;;;;;;5116280;28;20452;-73
2022/07/29 04:41:08;;;;;;;1.10;0.80;;;20.00;37.70;;;;;;5117938;28;20506;-73
2022/07/29 04:43:36;;;;;;;0.87;0.80;;;20.00;26.40;;;;;;5119516;28;20464;-73
2022/07/29 04:46:04;;;;;;;1.00;0.70;;;20.00;20.30;;;;;;5117401;28;20480;-73
2022/07/29 04:48:30;;;;;;;0.90;0.70;;;20.00;23.60;;;;;;5117940;28;20509;-73
2022/07/29 04:50:57;;;;;;;0.90;0.70;;;19.90;21.90;;;;;;5117219;28;20516;-73
2022/07/29 04:53:24;;;;;;;0.97;0.80;;;19.90;25.40;;;;;;5117425;28;20572;-73
2022/07/29 04:55:54;;;;;;;0.83;0.60;;;19.80;22.00;;;;;;5118209;28;20448;-73
2022/07/29 04:58:22;;;;;;;2.20;0.80;;;19.80;27.00;;;;;;5117625;28;20765;-73
2022/07/29 05:00:51;;;;;;;0.90;0.77;;;19.80;21.40;;;;;;5118153;28;20896;-73
2022/07/29 05:03:18;;;;;;;2.80;0.70;;;19.80;20.50;;;;;;5117742;28;20492;-73
2022/07/29 05:05:45;;;;;;;1.47;0.70;;;19.80;17.90;;;;;;5117262;28;20480;-75
2022/07/29 05:08:12;;;;;;;0.97;0.80;;;19.80;28.30;;;;;;5116416;28;20456;-73
2022/07/29 05:10:39;;;;;;;1.07;0.70;;;19.80;22.40;;;;;;5118404;28;20533;-72
2022/07/29 05:13:06;;;;;;;0.80;0.60;;;19.80;20.40;;;;;;5118706;28;20521;-73
2022/07/29 05:15:33;;;;;;;1.20;0.70;;;19.80;21.30;;;;;;5118190;28;20611;-73
2022/07/29 05:18:02;;;;;;;1.00;0.70;;;20.00;6.40;;;;;;5118186;28;20452;-73
2022/07/29 05:20:30;;;;;;;0.80;0.63;;;20.10;1.40;;;;;;5118427;28;20758;-73
2022/07/29 05:22:58;;;;;;;0.80;0.70;;;20.10;1.00;;;;;;5118168;28;20798;-73
2022/07/29 05:25:25;;;;;;;0.90;0.60;;;20.10;1.00;;;;;;5118437;28;20482;-73
2022/07/29 05:27:52;;;;;;;1.77;0.97;;;20.20;1.00;;;;;;5118222;28;20452;-72
2022/07/29 05:30:20;;;;;;;2.47;0.80;;;20.20;1.00;;;;;;5118295;28;20565;-72
2022/07/29 05:32:47;;;;;;;1.47;0.70;;;20.20;1.00;;;;;;5117425;28;20510;-73
2022/07/29 05:35:15;;;;;;;0.70;0.60;;;20.30;1.00;;;;;;5118120;28;20448;-73
2022/07/29 05:37:43;;;;;;;0.87;0.60;;;20.30;1.00;;;;;;5117972;28;20640;-73
2022/07/29 05:40:11;;;;;;;1.43;0.60;;;20.40;1.00;;;;;;5116246;28;20843;-72
2022/07/29 05:42:40;;;;;;;0.90;0.60;;;20.50;1.00;;;;;;5116228;28;20459;-72
2022/07/29 05:45:08;;;;;;;0.90;0.60;;;20.70;1.00;;;;;;5114467;28;20805;-73
2022/07/29 05:47:35;;;;;;;0.93;0.70;;;20.80;1.00;;;;;;5111850;27;20767;-74
2022/07/29 05:50:02;;;;;;;1.03;0.70;;;20.90;1.00;;;;;;5115220;28;20544;-74
2022/07/29 05:52:30;;;;;;;1.40;0.60;;;20.90;1.00;;;;;;5096203;28;20547;-74
2022/07/29 05:54:57;;;;;;;0.90;0.70;;;21.00;1.00;;;;;;5095449;28;20472;-75
2022/07/29 05:57:25;;;;;;;0.80;0.60;;;21.10;1.00;;;;;;5095688;28;20469;-74
2022/07/29 05:59:52;;;;;;;1.47;0.70;;;21.30;1.00;;;;;;5096655;28;20468;-75
2022/07/29 06:02:21;;;;;;;0.73;0.60;;;21.30;1.00;;;;;;5097198;28;20507;-75
2022/07/29 06:04:49;;;;;;;0.70;0.60;;;21.40;1.00;;;;;;5096909;28;20472;-76
2022/07/29 06:07:16;;;;;;;0.60;0.50;;;21.50;1.00;;;;;;5096283;28;20450;-75
2022/07/29 06:09:44;;;;;;;0.70;0.60;;;21.60;1.00;;;;;;5095242;28;20469;-76
2022/07/29 06:12:11;;;;;;;0.87;0.73;;;21.60;1.00;;;;;;5095852;28;20488;-74
2022/07/29 06:14:38;;;;;;;0.80;0.60;;;21.70;1.00;;;;;;5094763;28;20520;-75
2022/07/29 06:17:06;;;;;;;0.90;0.70;;;21.70;1.00;;;;;;5093462;28;20770;-73
2022/07/29 06:19:36;;;;;;;1.00;0.90;;;21.80;1.00;;;;;;5088795;28;20534;-74
2022/07/29 06:22:03;;;;;;;0.80;0.60;;;21.80;1.00;;;;;;5095492;28;20503;-75
2022/07/29 06:24:30;;;;;;;0.90;0.70;;;21.90;1.00;;;;;;5095634;28;20539;-74
2022/07/29 06:26:58;;;;;;;0.97;0.80;;;22.10;1.00;;;;;;5095259;28;20445;-76
2022/07/29 06:29:25;;;;;;;1.00;0.70;;;22.20;1.00;;;;;;5085077;28;20898;-75
2022/07/29 06:31:52;;;;;;;0.90;0.70;;;22.40;99.90;;;;;;5090986;28;20870;-77
2022/07/29 06:34:20;;;;;;;2.10;0.80;;;22.50;99.90;;;;;;5096118;28;20884;-77
2022/07/29 06:36:47;;;;;;;2.60;0.80;;;22.50;99.90;;;;;;5095974;28;20732;-77
2022/07/29 06:39:14;;;;;;;1.00;0.60;;;22.70;99.90;;;;;;5097006;28;20453;-79
2022/07/29 06:41:41;;;;;;;1.03;0.60;;;22.80;1.00;;;;;;5099347;28;20441;-77
2022/07/29 06:44:09;;;;;;;0.93;0.70;;;22.90;1.00;;;;;;5097021;28;20481;-78
2022/07/29 06:46:36;;;;;;;2.20;0.83;;;22.90;1.00;;;;;;5096782;28;20542;-79
2022/07/29 06:49:03;;;;;;;1.10;0.80;;;23.00;1.00;;;;;;5097456;28;20488;-76
2022/07/29 06:51:30;;;;;;;1.10;0.80;;;23.10;1.00;;;;;;5106937;28;20579;-76
2022/07/29 06:53:58;;;;;;;2.27;1.73;;;23.10;99.90;;;;;;5114265;28;20453;-77
2022/07/29 06:56:25;;;;;;;1.20;1.00;;;23.10;99.90;;;;;;5114777;28;20506;-77
2022/07/29 06:58:53;;;;;;;1.77;0.70;;;23.20;99.90;;;;;;5115505;28;20459;-77
2022/07/29 07:01:21;;;;;;;1.00;0.80;;;23.20;1.00;;;;;;5115945;28;20506;-76
2022/07/29 07:03:48;;;;;;;1.10;0.90;;;23.40;1.00;;;;;;5115397;28;20835;-76
2022/07/29 07:06:15;;;;;;;1.53;0.80;;;23.50;99.90;;;;;;5115730;28;20540;-75
2022/07/29 07:08:42;;;;;;;1.07;0.80;;;23.50;1.00;;;;;;5116223;28;20460;-75
2022/07/29 07:11:09;;;;;;;1.10;0.80;;;23.60;1.00;;;;;;5114700;28;20515;-77
2022/07/29 07:13:36;;;;;;;1.10;0.90;;;23.80;1.00;;;;;;5115785;28;20485;-77
2022/07/29 07:16:04;;;;;;;1.20;0.90;;;23.80;10.70;;;;;;5114260;28;20473;-75
2022/07/29 07:18:32;;;;;;;0.77;0.70;;;23.90;1.00;;;;;;5114622;28;20484;-76
2022/07/29 07:20:59;;;;;;;1.10;0.90;;;23.90;1.00;;;;;;5114941;28;20444;-76
2022/07/29 07:23:26;;;;;;;1.07;0.90;;;24.00;1.00;;;;;;5115569;28;20484;-75
2022/07/29 07:25:53;;;;;;;1.07;0.80;;;24.10;99.90;;;;;;5115905;28;20487;-74
2022/07/29 07:28:21;;;;;;;1.37;0.70;;;24.20;8.30;;;;;;5106877;28;20505;-75
2022/07/29 07:30:51;;;;;;;0.90;0.80;;;24.30;1.00;;;;;;5115753;28;20523;-75
2022/07/29 07:33:18;;;;;;;1.00;0.90;;;24.40;1.00;;;;;;5114084;28;20567;-74
2022/07/29 07:35:46;;;;;;;1.07;0.90;;;24.30;1.00;;;;;;5114407;28;20484;-75
2022/07/29 07:38:13;;;;;;;1.20;0.90;;;24.30;1.00;;;;;;5113877;28;20499;-75
2022/07/29 07:40:41;;;;;;;0.93;0.83;;;24.30;1.00;;;;;;5113331;28;20536;-76
2022/07/29 07:43:08;;;;;;;1.00;0.87;;;24.40;99.90;;;;;;5113157;28;20492;-75
2022/07/29 07:45:36;;;;;;;1.00;0.90;;;24.50;99.90;;;;;;5112912;28;20727;-75
2022/07/29 07:48:04;;;;;;;1.20;0.83;;;24.60;99.90;;;;;;5112868;28;20456;-75
2022/07/29 07:50:31;;;;;;;0.87;0.80;;;24.70;77.10;;;;;;5113987;28;20571;-75
2022/07/29 07:53:01;;;;;;;1.10;0.70;;;24.80;60.00;;;;;;5114114;28;20515;-75
2022/07/29 07:55:28;;;;;;;1.30;0.90;;;24.80;18.30;;;;;;5113708;28;20445;-75
2022/07/29 07:57:56;;;;;;;1.00;0.80;;;24.90;1.00;;;;;;5108407;28;20508;-75
2022/07/29 08:00:23;;;;;;;1.80;1.47;;;25.00;1.00;;;;;;5093385;28;20437;-75
2022/07/29 08:02:51;;;;;;;2.30;0.90;;;25.00;1.00;;;;;;5096257;28;20449;-75
2022/07/29 08:05:18;;;;;;;3.83;0.90;;;25.00;99.90;;;;;;5094784;28;20445;-75
2022/07/29 08:07:46;;;;;;;0.90;0.80;;;25.10;99.90;;;;;;5095189;28;20484;-74
2022/07/29 08:10:15;;;;;;;1.70;1.00;;;25.20;99.90;;;;;;5095187;28;20449;-74
2022/07/29 08:12:42;;;;;;;1.00;0.90;;;25.30;99.90;;;;;;5094650;28;20517;-75
2022/07/29 08:15:09;;;;;;;1.00;0.80;;;25.50;1.00;;;;;;5094751;28;20539;-75
2022/07/29 08:17:36;;;;;;;1.00;0.90;;;25.70;1.00;;;;;;5094631;28;20493;-75
2022/07/29 08:20:04;;;;;;;1.00;0.90;;;25.90;1.00;;;;;;5095433;28;20442;-75
2022/07/29 08:22:32;;;;;;;2.70;0.90;;;25.90;1.00;;;;;;5095328;28;20541;-75
2022/07/29 08:24:59;;;;;;;0.80;0.70;;;26.00;1.00;;;;;;5094411;28;20930;-76
2022/07/29 08:27:30;;;;;;;1.17;1.00;;;26.00;1.00;;;;;;5095486;28;20485;-75
2022/07/29 08:29:57;;;;;;;1.00;0.90;;;26.00;1.00;;;;;;5095412;28;20441;-76
2022/07/29 08:32:24;;;;;;;1.10;0.90;;;25.70;1.00;;;;;;5095825;28;21010;-74
2022/07/29 08:34:51;;;;;;;1.30;1.20;;;25.80;1.00;;;;;;5095491;28;20928;-74
2022/07/29 08:37:18;;;;;;;1.40;0.90;;;25.90;1.00;;;;;;5096635;28;20465;-74
2022/07/29 08:39:45;;;;;;;1.30;1.10;;;26.00;1.00;;;;;;5096062;28;20492;-74
2022/07/29 08:42:13;;;;;;;1.20;1.00;;;25.90;1.00;;;;;;5096920;28;20524;-72
2022/07/29 08:44:41;;;;;;;1.10;1.00;;;25.90;1.00;;;;;;5094676;28;20446;-74
2022/07/29 08:47:11;;;;;;;1.53;1.03;;;25.80;1.00;;;;;;5096412;28;20446;-73
2022/07/29 08:49:38;;;;;;;1.30;0.90;;;25.80;1.00;;;;;;5096939;28;20887;-74
2022/07/29 08:52:06;;;;;;;1.27;1.10;;;25.90;1.00;;;;;;5096248;28;21024;-74
2022/07/29 08:54:34;;;;;;;3.00;1.00;;;26.00;1.00;;;;;;5096929;28;20488;-73
2022/07/29 08:57:02;;;;;;;1.30;1.10;;;25.90;1.00;;;;;;5098255;28;20465;-73
2022/07/29 08:59:31;;;;;;;1.30;1.00;;;25.80;1.00;;;;;;5112985;27;20469;-74
2022/07/29 09:02:00;;;;;;;1.33;1.00;;;25.80;1.00;;;;;;5117209;28;20919;-73
2022/07/29 09:04:31;;;;;;;1.20;0.90;;;25.80;1.00;;;;;;5117167;28;20816;-73
2022/07/29 09:07:01;;;;;;;2.80;0.90;;;25.90;1.00;;;;;;5116361;28;20464;-73
2022/07/29 09:09:28;;;;;;;1.70;0.93;;;26.10;1.00;;;;;;5113627;28;20441;-74
2022/07/29 09:11:55;;;;;;;1.00;0.90;;;26.20;1.00;;;;;;5123191;27;20566;-77
2022/07/29 09:14:22;;;;;;;1.00;0.90;;;26.30;1.00;;;;;;5138092;27;20486;-77
2022/07/29 09:16:52;;;;;;;1.10;1.00;;;26.40;1.00;;;;;;5118021;27;20531;-79
2022/07/29 09:19:29;;;;;;;1.30;1.20;;;26.50;1.00;;;;;;5117481;28;20984;-76
2022/07/29 09:22:01;;;;;;;1.10;1.00;;;26.70;1.00;;;;;;5117273;28;20436;-79
2022/07/29 09:24:44;;;;;;;5.70;5.23;;;26.90;1.00;;;;;;5117801;28;20896;-75
2022/07/29 09:27:19;;;;;;;2.00;1.10;;;27.10;1.00;;;;;;5115277;28;20915;-73
2022/07/29 09:29:47;;;;;;;2.70;1.20;;;27.20;1.00;;;;;;5124785;27;20851;-74
2022/07/29 09:32:14;;;;;;;1.23;1.00;;;27.30;1.00;;;;;;5118709;27;21296;-73
2022/07/29 09:34:42;;;;;;;1.40;1.10;;;27.50;1.00;;;;;;5115606;27;20500;-73
2022/07/29 09:37:09;;;;;;;1.10;1.00;;;27.60;1.00;;;;;;5122421;27;20461;-73
2022/07/29 09:39:45;;;;;;;1.40;1.07;;;27.80;1.00;;;;;;5128090;27;20938;-74
2022/07/29 09:42:13;;;;;;;2.43;1.07;;;27.80;1.00;;;;;;5135362;27;20475;-75
2022/07/29 09:44:45;;;;;;;1.40;0.83;;;27.90;1.00;;;;;;5117330;27;20799;-76
2022/07/29 09:47:12;;;;;;;1.40;1.30;;;27.80;1.00;;;;;;5114890;28;20506;-74
2022/07/29 09:49:57;;;;;;;1.30;1.10;;;27.70;1.00;;;;;;5113075;28;20441;-74
2022/07/29 09:52:24;;;;;;;1.10;1.00;;;27.60;1.00;;;;;;5114229;28;20487;-74
2022/07/29 09:54:53;;;;;;;1.10;1.00;;;27.70;1.00;;;;;;5117169;27;20928;-74
2022/07/29 09:57:25;;;;;;;1.30;1.10;;;27.70;1.00;;;;;;5125099;27;20520;-73
2022/07/29 10:00:01;;;;;;;1.80;1.30;;;27.80;1.00;;;;;;5115941;27;20437;-74
2022/07/29 10:02:30;;;;;;;1.30;1.20;;;27.50;1.00;;;;;;5104726;28;20449;-73
2022/07/29 10:04:59;;;;;;;1.60;1.03;;;27.40;1.00;;;;;;5123953;27;20493;-73
2022/07/29 10:07:26;;;;;;;2.73;1.17;;;27.50;1.00;;;;;;5114187;28;20952;-73
2022/07/29 10:09:56;;;;;;;2.00;1.50;;;27.40;1.00;;;;;;5116058;28;20480;-74
2022/07/29 10:12:23;;;;;;;1.23;1.00;;;27.50;1.00;;;;;;5114735;27;20481;-74
2022/07/29 10:14:51;;;;;;;1.30;1.10;;;27.60;1.00;;;;;;5111761;28;20533;-74
2022/07/29 10:17:19;;;;;;;1.10;0.90;;;27.60;1.00;;;;;;5114745;28;20483;-73
2022/07/29 10:19:47;;;;;;;1.67;1.20;;;27.80;1.00;;;;;;5115084;28;20444;-72
2022/07/29 10:22:15;;;;;;;1.40;1.20;;;28.10;1.00;;;;;;5115367;27;20496;-73
2022/07/29 10:24:42;;;;;;;3.17;1.30;;;28.10;1.00;;;;;;5115611;28;20452;-73
2022/07/29 10:27:10;;;;;;;2.07;1.07;;;27.90;1.00;;;;;;5114625;28;20878;-73
2022/07/29 10:29:37;;;;;;;3.53;1.80;;;27.80;1.00;;;;;;5116503;28;20484;-74
2022/07/29 10:32:17;;;;;;;10.33;9.43;;;27.60;1.00;;;;;;5114897;28;20580;-73
2022/07/29 10:35:07;;;;;;;18.53;16.57;;;27.50;1.00;;;;;;5115972;28;20503;-75
2022/07/29 10:37:47;;;;;;;1.30;1.20;;;27.30;1.00;;;;;;5115937;28;20448;-74
2022/07/29 10:43:18;;;;;;;1.20;1.10;;;26.90;1.00;;;;;;5114970;28;20189;-73
2022/07/29 10:45:46;;;;;;;2.80;1.50;;;26.70;1.00;;;;;;5095140;28;20540;-75
2022/07/29 10:48:14;;;;;;;2.00;1.23;;;26.50;1.00;;;;;;5094765;28;20484;-75
2022/07/29 10:50:55;;;;;;;1.30;1.20;;;26.40;1.00;;;;;;5097098;28;20534;-74
2022/07/29 10:53:45;;;;;;;2.23;1.30;;;26.30;1.00;;;;;;5114547;28;20477;-74
2022/07/29 10:56:27;;;;;;;1.50;1.40;;;26.20;1.00;;;;;;5115658;28;20578;-75
2022/07/29 10:59:25;;;;;;;1.40;1.27;;;25.80;1.00;;;;;;5115025;28;20514;-74
2022/07/29 11:01:54;;;;;;;1.60;1.40;;;25.50;1.00;;;;;;5094987;28;20823;-77
2022/07/29 11:04:56;;;;;;;5.70;1.93;;;25.30;37.20;;;;;;5095454;28;20510;-76
2022/07/29 11:07:24;;;;;;;3.00;2.47;;;25.10;99.90;;;;;;5089547;28;20491;-78
2022/07/29 11:12:59;;;;;;;3.33;2.83;;;24.00;1.00;;;;;;5134101;27;20583;-79
2022/07/29 11:15:26;;;;;;;6.83;4.00;;;23.50;1.00;;;;;;5133324;27;20757;-78
2022/07/29 11:18:09;;;;;;;3.20;2.17;;;23.00;17.30;;;;;;5133309;27;20901;-76
2022/07/29 11:20:39;;;;;;;2.73;2.37;;;22.30;50.80;;;;;;5132159;27;20519;-76
2022/07/29 11:23:25;;;;;;;3.40;3.10;;;21.80;99.90;;;;;;5133183;27;20452;-76
2022/07/29 11:26:15;;;;;;;5.10;3.87;;;21.50;99.90;;;;;;5132289;27;20450;-76
2022/07/29 11:28:53;;;;;;;7.03;3.60;;;21.30;99.90;;;;;;5129929;27;20517;-78
2022/07/29 11:31:33;;;;;;;3.80;2.90;;;21.30;99.90;;;;;;5127711;27;20479;-76
2022/07/29 11:34:21;;;;;;;3.63;3.30;;;21.20;99.90;;;;;;5132904;27;20450;-78
2022/07/29 11:37:17;;;;;;;7.37;3.60;;;21.20;99.90;;;;;;5133943;27;20953;-74
2022/07/29 11:39:46;;;;;;;3.20;2.90;;;21.50;99.90;;;;;;5132900;27;20892;-76
2022/07/29 11:42:47;;;;;;;3.53;3.27;;;21.90;99.90;;;;;;5132308;27;20911;-76
2022/07/29 11:45:23;;;;;;;3.97;3.67;;;21.90;99.90;;;;;;5068664;28;20482;-77
2022/07/29 11:47:53;;;;;;;4.40;4.00;;;21.90;99.90;;;;;;5069761;28;20825;-75
2022/07/29 11:50:33;;;;;;;3.23;2.93;;;21.90;99.90;;;;;;5102860;27;20436;-76
2022/07/29 11:53:04;;;;;;;4.70;3.23;;;22.00;99.90;;;;;;5132025;27;20487;-78
2022/07/29 11:55:35;;;;;;;2.73;2.53;;;22.00;99.90;;;;;;5114776;27;20449;-77
2022/07/29 11:58:03;;;;;;;3.20;2.40;;;22.10;99.90;;;;;;5135932;27;20793;-78
2022/07/29 12:00:34;;;;;;;2.20;1.80;;;22.30;99.90;;;;;;5156698;27;20483;-78
2022/07/29 12:03:04;;;;;;;2.90;2.70;;;22.40;99.90;;;;;;5155353;27;20450;-79
2022/07/29 12:05:47;;;;;;;2.77;2.30;;;22.40;99.90;;;;;;5155860;27;20480;-79
2022/07/29 12:08:19;;;;;;;2.80;2.47;;;22.30;99.90;;;;;;5134967;27;20459;-79
2022/07/29 12:10:47;;;;;;;2.97;2.60;;;22.20;99.90;;;;;;5154863;27;20471;-79
2022/07/29 12:13:15;;;;;;;5.50;2.43;;;22.10;99.90;;;;;;5155386;27;20905;-79
2022/07/29 12:15:52;;;;;;;2.13;1.93;;;22.00;99.90;;;;;;5155913;27;20431;-78
2022/07/29 12:18:21;;;;;;;4.97;4.47;;;22.00;99.90;;;;;;5155238;27;20767;-78
2022/07/29 12:20:49;;;;;;;1.93;1.30;;;22.00;99.90;;;;;;5155000;27;20495;-77
2022/07/29 12:23:17;;;;;;;1.80;1.40;;;22.00;99.90;;;;;;5147326;27;20478;-76
2022/07/29 12:25:45;;;;;;;3.10;1.20;;;22.10;99.90;;;;;;5142851;27;20462;-78
2022/07/29 12:28:18;;;;;;;1.77;1.40;;;22.20;94.70;;;;;;5147400;27;20513;-77
2022/07/29 12:30:49;;;;;;;1.60;1.50;;;22.10;73.90;;;;;;5143534;27;20455;-78
2022/07/29 12:33:21;;;;;;;2.33;1.20;;;22.00;99.30;;;;;;5141478;27;20483;-77
2022/07/29 12:35:54;;;;;;;1.90;1.20;;;21.80;95.80;;;;;;5141085;27;20496;-79
2022/07/29 12:38:22;;;;;;;1.50;1.20;;;21.70;99.90;;;;;;5141408;27;20451;-79
2022/07/29 12:40:50;;;;;;;2.70;1.50;;;21.80;91.90;;;;;;5140838;27;20503;-78
2022/07/29 12:43:19;;;;;;;1.50;1.20;;;21.70;68.70;;;;;;5132687;27;20896;-78
2022/07/29 12:45:49;;;;;;;1.60;1.43;;;21.70;90.10;;;;;;5139075;27;20475;-78
2022/07/29 12:48:17;;;;;;;3.83;1.60;;;21.60;95.20;;;;;;5140324;27;20459;-79
2022/07/29 12:50:58;;;;;;;1.70;1.40;;;21.60;99.90;;;;;;5139898;27;21077;-78
2022/07/29 12:53:26;;;;;;;1.57;1.17;;;21.50;99.90;;;;;;5140549;27;20858;-78
2022/07/29 12:55:54;;;;;;;2.10;1.40;;;21.60;98.40;;;;;;5114474;27;20832;-75
2022/07/29 12:58:29;;;;;;;1.57;1.30;;;21.60;72.40;;;;;;5135505;27;20765;-73
2022/07/29 13:01:03;;;;;;;1.40;1.30;;;21.70;91.00;;;;;;5138353;27;20496;-74
2022/07/29 13:03:42;;;;;;;2.50;1.20;;;21.60;98.00;;;;;;5138431;27;20448;-72
2022/07/29 13:06:29;;;;;;;1.97;1.40;;;21.50;99.90;;;;;;5137584;27;20877;-74
2022/07/29 13:09:04;;;;;;;2.67;1.27;;;21.40;99.90;;;;;;5117813;27;20534;-74
2022/07/29 13:11:32;;;;;;;1.60;1.50;;;21.30;99.90;;;;;;5132577;27;20487;-75
2022/07/29 13:14:00;;;;;;;1.90;1.43;;;21.30;99.90;;;;;;5134424;27;20521;-75